Time,TemperatureF,DewpointF,PressureIn,WindDirection,WindDirectionDegrees,WindSpeedMPH,WindSpeedGustMPH,Humidity,HourlyPrecipIn,Conditions,Clouds,dailyrainin,SoftwareType,DateUTC
2013-02-07 00:00:00,37.0,30.2,30.19,NNW,338,0.0,0.0,76,0.00,CLR,,0.00,WeatherDisplay:10.37,2013-02-07 05:00:00,
2013-02-07 00:01:00,37.0,30.2,30.19,NNW,338,0.0,0.0,76,0.00,CLR,,0.00,WeatherDisplay:10.37,2013-02-07 05:01:00,
2013-02-07 00:06:00,36.9,30.0,30.19,NNW,338,0.0,0.0,76,0.00,CLR,,0.00,WeatherDisplay:10.37,2013-02-07 05:06:00,
2013-02-07 00:11:00,36.7,29.5,30.19,NNW,338,0.0,0.0,75,0.00,CLR,,0.00,WeatherDisplay:10.37,2013-02-07 05:11:00,
2013-02-07 00:16:00,36.3,29.2,30.19,NNW,338,0.0,0.0,75,0.00,CLR,,0.00,WeatherDisplay:10.37,2013-02-07 05:16:00,
2013-02-07 00:21:00,36.3,29.5,30.19,NNW,338,0.0,0.0,76,0.00,CLR,,0.00,WeatherDisplay:10.37,2013-02-07 05:21:00,
2013-02-07 00:26:00,36.1,29.3,30.19,NNW,338,0.0,0.0,76,0.00,CLR,,0.00,WeatherDisplay:10.37,2013-02-07 05:26:00,
2013-02-07 00:31:00,36.1,29.6,30.19,NNW,338,0.0,0.0,77,0.00,CLR,,0.00,WeatherDisplay:10.37,2013-02-07 05:31:00,
2013-02-07 00:36:00,36.1,29.6,30.20,NNW,338,0.0,0.0,77,0.00,CLR,,0.00,WeatherDisplay:10.37,2013-02-07 05:36:00,
2013-02-07 00:41:00,36.0,29.1,30.20,NNW,338,0.0,0.0,76,0.00,CLR,,0.00,WeatherDisplay:10.37,2013-02-07 05:41:00,
2013-02-07 00:46:00,35.8,29.3,30.19,NNW,338,0.0,0.0,77,0.00,CLR,,0.00,WeatherDisplay:10.37,2013-02-07 05:46:00,
2013-02-07 00:51:00,35.8,29.3,30.20,NNW,338,0.0,0.0,77,0.00,CLR,,0.00,WeatherDisplay:10.37,2013-02-07 05:51:00,
2013-02-07 00:56:00,35.8,29.3,30.19,NNW,338,0.0,0.0,77,0.00,CLR,,0.00,WeatherDisplay:10.37,2013-02-07 05:56:00,
2013-02-07 01:01:00,35.8,29.3,30.19,NNW,338,0.0,0.0,77,0.00,CLR,,0.00,WeatherDisplay:10.37,2013-02-07 06:01:00,
2013-02-07 01:06:00,35.8,29.3,30.19,NNW,338,0.0,0.0,77,0.00,CLR,,0.00,WeatherDisplay:10.37,2013-02-07 06:06:00,
2013-02-07 01:11:00,35.8,29.3,30.20,NNW,338,0.0,0.0,77,0.00,CLR,,0.00,WeatherDisplay:10.37,2013-02-07 06:11:00,
2013-02-07 01:17:00,35.8,29.3,30.20,NNW,338,0.0,0.0,77,0.00,CLR,,0.00,WeatherDisplay:10.37,2013-02-07 06:17:00,
2013-02-07 01:22:00,35.8,29.3,30.20,NNW,338,0.0,0.0,77,0.00,CLR,,0.00,WeatherDisplay:10.37,2013-02-07 06:22:00,
2013-02-07 01:27:00,35.8,29.3,30.20,NNW,338,0.0,0.0,77,0.00,CLR,,0.00,WeatherDisplay:10.37,2013-02-07 06:27:00,
2013-02-07 01:32:00,35.6,29.4,30.20,NNW,338,0.0,0.0,78,0.00,CLR,,0.00,WeatherDisplay:10.37,2013-02-07 06:32:00,
2013-02-07 01:37:00,35.8,29.6,30.21,NNW,338,0.0,0.0,78,0.00,CLR,,0.00,WeatherDisplay:10.37,2013-02-07 06:37:00,
2013-02-07 01:42:00,35.8,29.6,30.21,NNW,338,0.0,0.0,78,0.00,CLR,,0.00,WeatherDisplay:10.37,2013-02-07 06:42:00,
2013-02-07 01:47:00,35.4,28.9,30.21,NNW,338,0.0,0.0,77,0.00,CLR,,0.00,WeatherDisplay:10.37,2013-02-07 06:47:00,
2013-02-07 01:52:00,35.2,28.8,30.21,NNW,338,0.0,0.0,77,0.00,CLR,,0.00,WeatherDisplay:10.37,2013-02-07 06:52:00,
2013-02-07 01:57:00,35.2,29.1,30.21,NNW,338,0.0,0.0,78,0.00,CLR,,0.00,WeatherDisplay:10.37,2013-02-07 06:57:00,
2013-02-07 02:02:00,35.1,28.9,30.21,NNW,338,0.0,0.0,78,0.00,CLR,,0.00,WeatherDisplay:10.37,2013-02-07 07:02:00,
2013-02-07 02:07:00,34.7,28.5,30.21,NNW,338,0.0,0.0,78,0.00,CLR,,0.00,WeatherDisplay:10.37,2013-02-07 07:07:00,
2013-02-07 02:12:00,34.5,28.4,30.21,NNW,338,0.0,0.0,78,0.00,CLR,,0.00,WeatherDisplay:10.37,2013-02-07 07:12:00,
2013-02-07 02:17:00,34.3,28.2,30.21,WNW,292,0.0,0.0,78,0.00,CLR,,0.00,WeatherDisplay:10.37,2013-02-07 07:17:00,
2013-02-07 02:22:00,34.3,28.2,30.21,WNW,292,0.0,0.0,78,0.00,CLR,,0.00,WeatherDisplay:10.37,2013-02-07 07:22:00,
2013-02-07 02:27:00,34.5,28.4,30.21,WNW,292,0.0,0.0,78,0.00,CLR,,0.00,WeatherDisplay:10.37,2013-02-07 07:27:00,
2013-02-07 02:33:00,34.5,28.4,30.21,WNW,292,0.0,0.0,78,0.00,CLR,,0.00,WeatherDisplay:10.37,2013-02-07 07:33:00,
2013-02-07 02:37:00,34.5,28.7,30.21,WNW,292,0.0,0.0,79,0.00,CLR,,0.00,WeatherDisplay:10.37,2013-02-07 07:37:00,
2013-02-07 02:43:00,34.3,28.5,30.20,NE,45,0.0,0.0,79,0.00,CLR,,0.00,WeatherDisplay:10.37,2013-02-07 07:43:00,
2013-02-07 02:48:00,34.3,28.5,30.20,WNW,292,2.3,0.0,79,0.00,CLR,,0.00,WeatherDisplay:10.37,2013-02-07 07:48:00,
2013-02-07 02:53:00,34.3,28.5,30.20,WNW,292,0.0,0.0,79,0.00,CLR,,0.00,WeatherDisplay:10.37,2013-02-07 07:53:00,
2013-02-07 02:58:00,34.5,28.7,30.21,WNW,292,0.0,0.0,79,0.00,CLR,,0.00,WeatherDisplay:10.37,2013-02-07 07:58:00,
2013-02-07 03:03:00,34.5,29.0,30.20,WNW,292,0.0,0.0,80,0.00,CLR,,0.00,WeatherDisplay:10.37,2013-02-07 08:03:00,
2013-02-07 03:08:00,34.5,29.0,30.20,WNW,292,0.0,0.0,80,0.00,CLR,,0.00,WeatherDisplay:10.37,2013-02-07 08:08:00,
2013-02-07 03:13:00,34.5,29.0,30.20,WNW,292,0.0,0.0,80,0.00,CLR,,0.00,WeatherDisplay:10.37,2013-02-07 08:13:00,
2013-02-07 03:18:00,34.7,29.2,30.21,WNW,292,0.0,0.0,80,0.00,CLR,,0.00,WeatherDisplay:10.37,2013-02-07 08:18:00,
2013-02-07 03:23:00,34.7,29.2,30.21,WNW,292,0.0,0.0,80,0.00,CLR,,0.00,WeatherDisplay:10.37,2013-02-07 08:23:00,
2013-02-07 03:28:00,34.9,29.3,30.22,WNW,292,0.0,0.0,80,0.00,CLR,,0.00,WeatherDisplay:10.37,2013-02-07 08:28:00,
2013-02-07 03:33:00,34.9,29.3,30.22,WNW,292,0.0,0.0,80,0.00,CLR,,0.00,WeatherDisplay:10.37,2013-02-07 08:33:00,
2013-02-07 03:38:00,34.9,29.3,30.22,WNW,292,0.0,0.0,80,0.00,CLR,,0.00,WeatherDisplay:10.37,2013-02-07 08:38:00,
2013-02-07 03:43:00,34.9,29.3,30.22,WNW,292,0.0,0.0,80,0.00,CLR,,0.00,WeatherDisplay:10.37,2013-02-07 08:43:00,
2013-02-07 03:48:00,35.1,29.5,30.22,WNW,292,0.0,0.0,80,0.00,CLR,,0.00,WeatherDisplay:10.37,2013-02-07 08:48:00,
2013-02-07 03:53:00,35.1,29.5,30.22,WNW,292,0.0,0.0,80,0.00,CLR,,0.00,WeatherDisplay:10.37,2013-02-07 08:53:00,
2013-02-07 03:59:00,34.9,29.3,30.23,WNW,292,0.0,0.0,80,0.00,CLR,,0.00,WeatherDisplay:10.37,2013-02-07 08:59:00,
2013-02-07 04:04:00,34.9,29.3,30.22,WNW,292,0.0,0.0,80,0.00,CLR,,0.00,WeatherDisplay:10.37,2013-02-07 09:04:00,
2013-02-07 04:09:00,34.9,29.3,30.23,WNW,292,0.0,0.0,80,0.00,CLR,,0.00,WeatherDisplay:10.37,2013-02-07 09:09:00,
2013-02-07 04:14:00,34.9,29.3,30.23,WNW,292,0.0,0.0,80,0.00,CLR,,0.00,WeatherDisplay:10.37,2013-02-07 09:14:00,
2013-02-07 04:19:00,34.9,29.3,30.23,WNW,292,0.0,0.0,80,0.00,CLR,,0.00,WeatherDisplay:10.37,2013-02-07 09:19:00,
2013-02-07 04:24:00,34.9,29.3,30.23,WNW,292,0.0,0.0,80,0.00,CLR,,0.00,WeatherDisplay:10.37,2013-02-07 09:24:00,
2013-02-07 04:29:00,34.9,29.3,30.23,WNW,292,0.0,0.0,80,0.00,CLR,,0.00,WeatherDisplay:10.37,2013-02-07 09:29:00,
2013-02-07 04:34:00,35.1,29.5,30.23,WNW,292,0.0,0.0,80,0.00,CLR,,0.00,WeatherDisplay:10.37,2013-02-07 09:34:00,
2013-02-07 04:39:00,35.2,29.7,30.23,WNW,292,0.0,0.0,80,0.00,CLR,,0.00,WeatherDisplay:10.37,2013-02-07 09:39:00,
2013-02-07 04:44:00,34.9,29.3,30.23,WNW,292,0.0,0.0,80,0.00,CLR,,0.00,WeatherDisplay:10.37,2013-02-07 09:44:00,
2013-02-07 04:49:00,34.9,29.3,30.23,WNW,292,0.0,0.0,80,0.00,CLR,,0.00,WeatherDisplay:10.37,2013-02-07 09:49:00,
2013-02-07 04:54:00,34.9,29.6,30.23,WNW,292,0.0,0.0,81,0.00,CLR,,0.00,WeatherDisplay:10.37,2013-02-07 09:54:00,
2013-02-07 04:59:00,35.2,30.0,30.22,WNW,292,0.0,0.0,81,0.00,CLR,,0.00,WeatherDisplay:10.37,2013-02-07 09:59:00,
2013-02-07 05:04:00,35.2,30.0,30.23,WNW,292,0.0,0.0,81,0.00,CLR,,0.00,WeatherDisplay:10.37,2013-02-07 10:04:00,
2013-02-07 05:09:00,34.9,29.6,30.23,WNW,292,0.0,0.0,81,0.00,CLR,,0.00,WeatherDisplay:10.37,2013-02-07 10:09:00,
2013-02-07 05:14:00,34.9,29.6,30.23,WNW,292,0.0,0.0,81,0.00,CLR,,0.00,WeatherDisplay:10.37,2013-02-07 10:14:00,
2013-02-07 05:19:00,35.1,29.8,30.22,WNW,292,0.0,0.0,81,0.00,CLR,,0.00,WeatherDisplay:10.37,2013-02-07 10:19:00,
2013-02-07 05:25:00,35.2,30.0,30.22,WNW,292,0.0,0.0,81,0.00,CLR,,0.00,WeatherDisplay:10.37,2013-02-07 10:25:00,
2013-02-07 05:30:00,35.2,30.0,30.22,WNW,292,0.0,0.0,81,0.00,CLR,,0.00,WeatherDisplay:10.37,2013-02-07 10:30:00,
2013-02-07 05:35:00,35.2,30.0,30.22,WNW,292,0.0,0.0,81,0.00,CLR,,0.00,WeatherDisplay:10.37,2013-02-07 10:35:00,
2013-02-07 05:40:00,35.2,30.0,30.22,WNW,292,0.0,0.0,81,0.00,CLR,,0.00,WeatherDisplay:10.37,2013-02-07 10:40:00,
2013-02-07 05:45:00,35.2,30.0,30.22,WNW,292,0.0,0.0,81,0.00,CLR,,0.00,WeatherDisplay:10.37,2013-02-07 10:45:00,
2013-02-07 05:50:00,35.4,30.5,30.21,WNW,292,0.0,0.0,82,0.00,CLR,,0.00,WeatherDisplay:10.37,2013-02-07 10:50:00,
2013-02-07 05:55:00,35.4,30.5,30.21,WNW,292,0.0,0.0,82,0.00,CLR,,0.00,WeatherDisplay:10.37,2013-02-07 10:55:00,
2013-02-07 06:00:00,35.4,30.5,30.21,WNW,292,0.0,0.0,82,0.00,CLR,,0.00,WeatherDisplay:10.37,2013-02-07 11:00:00,
2013-02-07 06:05:00,35.4,30.5,30.21,WNW,292,0.0,0.0,82,0.00,CLR,,0.00,WeatherDisplay:10.37,2013-02-07 11:05:00,
2013-02-07 06:10:00,35.4,30.5,30.21,WNW,292,0.0,0.0,82,0.00,CLR,,0.00,WeatherDisplay:10.37,2013-02-07 11:10:00,
2013-02-07 06:15:00,35.4,30.5,30.20,WNW,292,0.0,0.0,82,0.00,CLR,,0.00,WeatherDisplay:10.37,2013-02-07 11:15:00,
2013-02-07 06:20:00,35.6,30.6,30.20,WNW,292,0.0,0.0,82,0.00,CLR,,0.00,WeatherDisplay:10.37,2013-02-07 11:20:00,
2013-02-07 06:25:00,35.8,30.8,30.20,WNW,292,0.0,0.0,82,0.00,CLR,,0.00,WeatherDisplay:10.37,2013-02-07 11:25:00,
2013-02-07 06:30:00,35.8,30.8,30.20,WNW,292,0.0,0.0,82,0.00,CLR,,0.00,WeatherDisplay:10.37,2013-02-07 11:30:00,
2013-02-07 06:35:00,35.8,30.8,30.20,WNW,292,0.0,0.0,82,0.00,CLR,,0.00,WeatherDisplay:10.37,2013-02-07 11:35:00,
2013-02-07 06:40:00,36.0,31.0,30.20,WNW,292,0.0,0.0,82,0.00,CLR,,0.00,WeatherDisplay:10.37,2013-02-07 11:40:00,
2013-02-07 06:45:00,36.0,31.0,30.21,WNW,292,0.0,0.0,82,0.00,CLR,,0.00,WeatherDisplay:10.37,2013-02-07 11:45:00,
2013-02-07 06:50:00,36.0,31.0,30.21,WNW,292,0.0,0.0,82,0.00,CLR,,0.00,WeatherDisplay:10.37,2013-02-07 11:50:00,
2013-02-07 06:55:00,36.0,31.0,30.21,WNW,292,0.0,0.0,82,0.00,CLR,,0.00,WeatherDisplay:10.37,2013-02-07 11:55:00,
2013-02-07 07:01:00,36.0,31.0,30.21,WNW,292,0.0,0.0,82,0.00,CLR,,0.00,WeatherDisplay:10.37,2013-02-07 12:01:00,
2013-02-07 07:06:00,36.1,31.2,30.21,WNW,292,0.0,0.0,82,0.00,CLR,,0.00,WeatherDisplay:10.37,2013-02-07 12:06:00,
2013-02-07 07:11:00,36.1,31.2,30.21,WNW,292,0.0,0.0,82,0.00,CLR,,0.00,WeatherDisplay:10.37,2013-02-07 12:11:00,
2013-02-07 07:16:00,36.1,31.2,30.21,WNW,292,0.0,0.0,82,0.00,CLR,,0.00,WeatherDisplay:10.37,2013-02-07 12:16:00,
2013-02-07 07:21:00,36.3,31.4,30.21,WNW,292,0.0,0.0,82,0.00,CLR,,0.00,WeatherDisplay:10.37,2013-02-07 12:21:00,
2013-02-07 07:26:00,36.3,31.4,30.21,WNW,292,0.0,0.0,82,0.00,CLR,,0.00,WeatherDisplay:10.37,2013-02-07 12:26:00,
2013-02-07 07:31:00,36.3,31.4,30.21,WNW,292,0.0,0.0,82,0.00,CLR,,0.00,WeatherDisplay:10.37,2013-02-07 12:31:00,
2013-02-07 07:36:00,36.3,31.4,30.22,WNW,292,0.0,0.0,82,0.00,CLR,,0.00,WeatherDisplay:10.37,2013-02-07 12:36:00,
2013-02-07 07:41:00,36.3,31.4,30.22,WNW,292,0.0,0.0,82,0.00,CLR,,0.00,WeatherDisplay:10.37,2013-02-07 12:41:00,
2013-02-07 07:46:00,36.3,31.4,30.22,WNW,292,0.0,0.0,82,0.00,CLR,,0.00,WeatherDisplay:10.37,2013-02-07 12:46:00,
2013-02-07 07:51:00,36.3,31.4,30.22,WNW,292,0.0,0.0,82,0.00,CLR,,0.00,WeatherDisplay:10.37,2013-02-07 12:51:00,
2013-02-07 07:56:00,36.3,31.4,30.22,WNW,292,0.0,0.0,82,0.00,CLR,,0.00,WeatherDisplay:10.37,2013-02-07 12:56:00,
2013-02-07 08:01:00,36.3,31.4,30.22,WNW,292,0.0,0.0,82,0.00,SCT,,0.00,WeatherDisplay:10.37,2013-02-07 13:01:00,
2013-02-07 08:06:00,36.5,31.5,30.22,WNW,292,0.0,0.0,82,0.00,SCT,,0.00,WeatherDisplay:10.37,2013-02-07 13:06:00,
2013-02-07 08:11:00,36.7,31.7,30.22,WNW,292,0.0,0.0,82,0.00,SCT,,0.00,WeatherDisplay:10.37,2013-02-07 13:11:00,
2013-02-07 08:16:00,36.9,31.9,30.22,WNW,292,0.0,0.0,82,0.00,SCT,,0.00,WeatherDisplay:10.37,2013-02-07 13:16:00,
2013-02-07 08:21:00,37.0,32.1,30.22,NNW,338,0.0,0.0,82,0.00,SCT,,0.00,WeatherDisplay:10.37,2013-02-07 13:21:00,
2013-02-07 08:26:00,37.0,32.1,30.22,NE,45,0.0,0.0,82,0.00,SCT,,0.00,WeatherDisplay:10.37,2013-02-07 13:26:00,
2013-02-07 08:31:00,37.0,32.4,30.22,NE,45,0.0,0.0,83,0.00,SCT,,0.00,WeatherDisplay:10.37,2013-02-07 13:31:00,
2013-02-07 08:37:00,37.0,32.4,30.22,NE,45,0.0,0.0,83,0.00,SCT,,0.00,WeatherDisplay:10.37,2013-02-07 13:37:00,
2013-02-07 08:42:00,37.0,32.4,30.22,NE,45,0.0,0.0,83,0.00,SCT,,0.00,WeatherDisplay:10.37,2013-02-07 13:42:00,
2013-02-07 08:47:00,37.2,32.5,30.22,NNW,338,0.0,0.0,83,0.00,SCT,,0.00,WeatherDisplay:10.37,2013-02-07 13:47:00,
2013-02-07 08:52:00,37.2,32.5,30.22,NNW,338,0.0,0.0,83,0.00,SCT,,0.00,WeatherDisplay:10.37,2013-02-07 13:52:00,
2013-02-07 08:57:00,37.4,32.7,30.22,NNW,338,0.0,0.0,83,0.00,SCT,,0.00,WeatherDisplay:10.37,2013-02-07 13:57:00,
2013-02-07 09:02:00,37.6,32.9,30.22,NNW,338,0.0,0.0,83,0.00,OVC,,0.00,WeatherDisplay:10.37,2013-02-07 14:02:00,
2013-02-07 09:07:00,37.8,33.1,30.22,NNW,338,0.0,0.0,83,0.00,OVC,,0.00,WeatherDisplay:10.37,2013-02-07 14:07:00,
2013-02-07 09:12:00,37.9,32.9,30.22,NNW,338,0.0,0.0,82,0.00,OVC,,0.00,WeatherDisplay:10.37,2013-02-07 14:12:00,
2013-02-07 09:17:00,38.1,33.1,30.22,NNW,338,0.0,0.0,82,0.00,OVC,,0.00,WeatherDisplay:10.37,2013-02-07 14:17:00,
2013-02-07 09:22:00,38.3,33.3,30.21,North,0,0.0,0.0,82,0.00,OVC,,0.00,WeatherDisplay:10.37,2013-02-07 14:22:00,
2013-02-07 09:27:00,38.5,33.5,30.21,North,0,0.0,0.0,82,0.00,OVC,,0.00,WeatherDisplay:10.37,2013-02-07 14:27:00,
2013-02-07 09:32:00,38.8,33.8,30.21,North,0,0.0,0.0,82,0.00,OVC,,0.00,WeatherDisplay:10.37,2013-02-07 14:32:00,
2013-02-07 09:37:00,39.0,34.0,30.22,North,0,0.0,0.0,82,0.00,OVC,,0.00,WeatherDisplay:10.37,2013-02-07 14:37:00,
2013-02-07 09:42:00,39.4,34.3,30.21,North,0,0.0,0.0,82,0.00,OVC,,0.00,WeatherDisplay:10.37,2013-02-07 14:42:00,
2013-02-07 09:47:00,39.6,34.5,30.21,NNE,22,0.0,0.0,82,0.00,OVC,,0.00,WeatherDisplay:10.37,2013-02-07 14:47:00,
2013-02-07 09:52:00,39.7,34.4,30.21,NE,45,0.0,0.0,81,0.00,OVC,,0.00,WeatherDisplay:10.37,2013-02-07 14:52:00,
2013-02-07 09:57:00,39.9,34.6,30.21,NE,45,0.0,0.0,81,0.00,OVC,,0.00,WeatherDisplay:10.37,2013-02-07 14:57:00,
2013-02-07 10:02:00,40.1,34.4,30.21,NE,45,0.0,0.0,80,0.00,OVC,,0.00,WeatherDisplay:10.37,2013-02-07 15:02:00,
2013-02-07 10:07:00,40.3,34.6,30.21,NE,45,0.0,0.0,80,0.00,OVC,,0.00,WeatherDisplay:10.37,2013-02-07 15:07:00,
2013-02-07 10:12:00,40.6,35.0,30.20,NE,45,0.0,0.0,80,0.00,OVC,,0.00,WeatherDisplay:10.37,2013-02-07 15:12:00,
2013-02-07 10:17:00,40.8,35.1,30.19,NE,45,0.0,0.0,80,0.00,OVC,,0.00,WeatherDisplay:10.37,2013-02-07 15:17:00,
2013-02-07 10:23:00,41.2,35.5,30.19,NE,45,0.0,0.0,80,0.00,OVC,,0.00,WeatherDisplay:10.37,2013-02-07 15:23:00,
2013-02-07 10:28:00,41.5,35.5,30.19,NE,45,0.0,0.0,79,0.00,OVC,,0.00,WeatherDisplay:10.37,2013-02-07 15:28:00,
2013-02-07 10:33:00,41.7,35.7,30.19,NE,45,0.0,0.0,79,0.00,OVC,,0.00,WeatherDisplay:10.37,2013-02-07 15:33:00,
2013-02-07 10:38:00,42.1,36.0,30.19,NE,45,0.0,0.0,79,0.00,OVC,,0.00,WeatherDisplay:10.37,2013-02-07 15:38:00,
2013-02-07 10:43:00,42.6,36.2,30.19,NE,45,0.0,0.0,78,0.00,OVC,,0.00,WeatherDisplay:10.37,2013-02-07 15:43:00,
2013-02-07 10:48:00,42.8,36.4,30.19,North,0,0.0,0.0,78,0.00,OVC,,0.00,WeatherDisplay:10.37,2013-02-07 15:48:00,
2013-02-07 10:53:00,43.0,35.9,30.19,NE,45,3.5,0.0,76,0.00,OVC,,0.00,WeatherDisplay:10.37,2013-02-07 15:53:00,
2013-02-07 10:58:00,43.2,35.8,30.19,NNE,22,0.0,0.0,75,0.00,OVC,,0.00,WeatherDisplay:10.37,2013-02-07 15:58:00,
2013-02-07 11:03:00,43.3,35.6,30.19,NNE,22,0.0,0.0,74,0.00,OVC,,0.00,WeatherDisplay:10.37,2013-02-07 16:03:00,
2013-02-07 11:08:00,43.5,35.8,30.18,NNE,22,2.3,2.3,74,0.00,OVC,,0.00,WeatherDisplay:10.37,2013-02-07 16:08:00,
2013-02-07 11:13:00,43.5,35.8,30.18,NNE,22,1.1,0.0,74,0.00,OVC,,0.00,WeatherDisplay:10.37,2013-02-07 16:13:00,
2013-02-07 11:18:00,43.5,35.8,30.18,NNE,22,0.0,0.0,74,0.00,OVC,,0.00,WeatherDisplay:10.37,2013-02-07 16:18:00,
2013-02-07 11:23:00,43.5,35.8,30.18,NNW,338,4.6,4.6,74,0.00,OVC,,0.00,WeatherDisplay:10.37,2013-02-07 16:23:00,
2013-02-07 11:28:00,43.7,35.6,30.18,North,0,3.5,3.5,73,0.00,OVC,,0.00,WeatherDisplay:10.37,2013-02-07 16:28:00,
2013-02-07 11:33:00,43.7,35.6,30.18,NE,45,2.3,0.0,73,0.00,OVC,,0.00,WeatherDisplay:10.37,2013-02-07 16:33:00,
2013-02-07 11:39:00,43.5,35.4,30.17,NNE,22,0.0,0.8,73,0.00,OVC,,0.00,WeatherDisplay:10.37,2013-02-07 16:39:00,
2013-02-07 11:44:00,43.7,35.6,30.17,ENE,68,3.5,3.5,73,0.00,OVC,,0.00,WeatherDisplay:10.37,2013-02-07 16:44:00,
2013-02-07 11:49:00,43.7,35.6,30.17,NE,45,2.3,2.3,73,0.00,OVC,,0.00,WeatherDisplay:10.37,2013-02-07 16:49:00,
2013-02-07 11:54:00,43.7,35.6,30.17,NE,45,0.0,0.0,73,0.00,OVC,,0.00,WeatherDisplay:10.37,2013-02-07 16:54:00,
2013-02-07 11:59:00,43.5,35.8,30.17,NE,45,0.0,0.0,74,0.00,OVC,,0.00,WeatherDisplay:10.37,2013-02-07 16:59:00,
2013-02-07 12:04:00,43.5,35.8,30.17,NNE,22,0.0,0.0,74,0.00,OVC,,0.00,WeatherDisplay:10.37,2013-02-07 17:04:00,
2013-02-07 12:09:00,43.5,35.8,30.16,ENE,68,1.8,1.8,74,0.00,OVC,,0.00,WeatherDisplay:10.37,2013-02-07 17:09:00,
2013-02-07 12:14:00,43.5,35.8,30.16,ENE,68,2.3,2.3,74,0.00,OVC,,0.00,WeatherDisplay:10.37,2013-02-07 17:14:00,
2013-02-07 12:19:00,43.5,36.1,30.16,ENE,68,0.0,0.0,75,0.00,OVC,,0.00,WeatherDisplay:10.37,2013-02-07 17:19:00,
2013-02-07 12:24:00,43.3,35.9,30.16,ENE,68,0.0,0.0,75,0.00,OVC,,0.00,WeatherDisplay:10.37,2013-02-07 17:24:00,
2013-02-07 12:29:00,43.5,36.5,30.16,ENE,68,0.0,0.0,76,0.00,OVC,,0.00,WeatherDisplay:10.37,2013-02-07 17:29:00,
2013-02-07 12:34:00,43.5,36.8,30.16,ENE,68,0.0,0.7,77,0.00,OVC,,0.00,WeatherDisplay:10.37,2013-02-07 17:34:00,
2013-02-07 12:39:00,43.5,36.8,30.16,ENE,68,0.0,0.0,77,0.00,OVC,,0.00,WeatherDisplay:10.37,2013-02-07 17:39:00,
2013-02-07 12:44:00,43.3,36.3,30.16,ENE,68,2.3,2.3,76,0.00,OVC,,0.00,WeatherDisplay:10.37,2013-02-07 17:44:00,
2013-02-07 12:49:00,43.2,36.1,30.15,ENE,68,2.3,0.0,76,0.00,OVC,,0.00,WeatherDisplay:10.37,2013-02-07 17:49:00,
2013-02-07 12:55:00,43.0,35.9,30.15,ENE,68,1.1,1.1,76,0.00,OVC,,0.00,WeatherDisplay:10.37,2013-02-07 17:55:00,
2013-02-07 13:00:00,43.0,35.9,30.15,ENE,68,0.0,0.0,76,0.00,OVC,,0.00,WeatherDisplay:10.37,2013-02-07 18:00:00,
2013-02-07 13:05:00,43.0,35.9,30.14,ENE,68,0.0,0.0,76,0.00,-RA,,0.00,WeatherDisplay:10.37,2013-02-07 18:05:00,
2013-02-07 13:10:00,42.6,35.6,30.14,NE,45,3.5,3.5,76,0.00,-RA,,0.00,WeatherDisplay:10.37,2013-02-07 18:10:00,
2013-02-07 13:15:00,42.6,35.9,30.14,NE,49,0.0,5.0,77,0.00,-RA,,0.00,WeatherDisplay:10.37,2013-02-07 18:15:00,
2013-02-07 13:20:00,42.6,35.9,30.14,ENE,68,0.0,0.0,77,0.00,-RA,,0.00,WeatherDisplay:10.37,2013-02-07 18:20:00,
2013-02-07 13:25:00,42.6,35.9,30.14,ENE,68,0.0,0.0,77,0.00,-RA,,0.00,WeatherDisplay:10.37,2013-02-07 18:25:00,
2013-02-07 13:30:00,42.6,36.2,30.14,ENE,68,0.0,3.0,78,0.00,-RA,,0.00,WeatherDisplay:10.37,2013-02-07 18:30:00,
2013-02-07 13:35:00,42.6,36.2,30.13,ENE,68,0.0,0.0,78,0.00,-RA,,0.00,WeatherDisplay:10.37,2013-02-07 18:35:00,
2013-02-07 13:40:00,42.6,36.2,30.13,NNE,22,0.0,0.0,78,0.00,-RA,,0.00,WeatherDisplay:10.37,2013-02-07 18:40:00,
2013-02-07 13:45:00,42.6,36.2,30.13,NNE,22,0.0,0.0,78,0.00,-RA,,0.00,WeatherDisplay:10.37,2013-02-07 18:45:00,
2013-02-07 13:50:00,42.6,36.2,30.13,NNE,22,0.0,0.0,78,0.00,-RA,,0.00,WeatherDisplay:10.37,2013-02-07 18:50:00,
2013-02-07 13:55:00,42.6,36.6,30.13,NNE,22,0.0,0.0,79,0.00,-RA,,0.00,WeatherDisplay:10.37,2013-02-07 18:55:00,
2013-02-07 14:00:00,42.6,36.6,30.13,NNE,22,0.0,0.0,79,0.03,-RA,,0.03,WeatherDisplay:10.37,2013-02-07 19:00:00,
2013-02-07 14:05:00,42.6,36.6,30.13,NNE,22,0.0,0.0,79,0.03,-RA,,0.03,WeatherDisplay:10.37,2013-02-07 19:05:00,
2013-02-07 14:10:00,42.6,36.6,30.13,NNE,22,0.0,0.0,79,0.03,-RA,,0.03,WeatherDisplay:10.37,2013-02-07 19:10:00,
2013-02-07 14:15:00,42.6,36.6,30.12,NNE,22,0.0,0.0,79,0.03,-RA,,0.03,WeatherDisplay:10.37,2013-02-07 19:15:00,
2013-02-07 14:20:00,42.6,36.6,30.12,NNE,22,0.0,0.0,79,0.03,-RA,,0.03,WeatherDisplay:10.37,2013-02-07 19:20:00,
2013-02-07 14:25:00,42.6,36.9,30.12,NNE,22,0.0,0.0,80,0.03,-RA,,0.03,WeatherDisplay:10.37,2013-02-07 19:25:00,
2013-02-07 14:31:00,42.6,36.9,30.12,NNE,22,0.0,0.0,80,0.03,-RA,,0.03,WeatherDisplay:10.37,2013-02-07 19:31:00,
2013-02-07 14:36:00,42.6,36.9,30.12,NNE,22,0.0,0.0,80,0.03,-RA,,0.03,WeatherDisplay:10.37,2013-02-07 19:36:00,
2013-02-07 14:41:00,42.6,37.2,30.12,NNW,338,0.0,0.0,81,0.03,-RA,,0.03,WeatherDisplay:10.37,2013-02-07 19:41:00,
2013-02-07 14:46:00,42.6,37.2,30.11,NNW,338,0.0,0.0,81,0.03,-RA,,0.03,WeatherDisplay:10.37,2013-02-07 19:46:00,
2013-02-07 14:51:00,42.6,37.2,30.11,North,0,0.0,0.0,81,0.03,-RA,,0.03,WeatherDisplay:10.37,2013-02-07 19:51:00,
2013-02-07 14:56:00,42.6,37.2,30.11,North,0,0.0,0.0,81,0.03,-RA,,0.03,WeatherDisplay:10.37,2013-02-07 19:56:00,
2013-02-07 15:01:00,42.6,37.2,30.11,North,0,0.0,0.0,81,0.00,-RA,,0.03,WeatherDisplay:10.37,2013-02-07 20:01:00,
2013-02-07 15:06:00,42.6,37.2,30.11,North,0,0.0,0.0,81,0.00,-RA,,0.03,WeatherDisplay:10.37,2013-02-07 20:06:00,
2013-02-07 15:11:00,42.6,37.5,30.11,NNW,338,0.0,0.0,82,0.00,-RA,,0.03,WeatherDisplay:10.37,2013-02-07 20:11:00,
2013-02-07 15:16:00,42.6,37.5,30.10,NNW,338,0.0,0.0,82,0.00,-RA,,0.03,WeatherDisplay:10.37,2013-02-07 20:16:00,
2013-02-07 15:21:00,42.6,37.5,30.10,NNW,338,0.0,0.0,82,0.00,-RA,,0.03,WeatherDisplay:10.37,2013-02-07 20:21:00,
2013-02-07 15:26:00,42.6,37.5,30.10,NNW,338,0.0,0.0,82,0.00,-RA,,0.03,WeatherDisplay:10.37,2013-02-07 20:26:00,
2013-02-07 15:31:00,42.6,37.5,30.10,NNW,338,0.0,0.0,82,0.00,-RA,,0.03,WeatherDisplay:10.37,2013-02-07 20:31:00,
2013-02-07 15:36:00,42.4,37.6,30.09,North,0,0.0,0.0,83,0.00,-RA,,0.03,WeatherDisplay:10.37,2013-02-07 20:36:00,
2013-02-07 15:41:00,42.4,37.6,30.09,North,0,0.0,0.0,83,0.00,-RA,,0.03,WeatherDisplay:10.37,2013-02-07 20:41:00,
2013-02-07 15:47:00,42.4,37.6,30.09,NE,45,0.0,0.0,83,0.03,-RA,,0.06,WeatherDisplay:10.37,2013-02-07 20:47:00,
2013-02-07 15:52:00,42.3,37.8,30.09,NE,45,0.0,0.0,84,0.03,-RA,,0.06,WeatherDisplay:10.37,2013-02-07 20:52:00,
2013-02-07 15:57:00,42.1,37.6,30.08,NE,45,0.0,0.0,84,0.03,-RA,,0.06,WeatherDisplay:10.37,2013-02-07 20:57:00,
2013-02-07 16:02:00,42.1,37.6,30.08,NE,45,0.0,0.0,84,0.03,-RA,,0.06,WeatherDisplay:10.37,2013-02-07 21:02:00,
2013-02-07 16:07:00,42.1,37.6,30.08,NE,45,0.0,0.0,84,0.03,-RA,,0.06,WeatherDisplay:10.37,2013-02-07 21:07:00,
2013-02-07 16:12:00,42.1,37.6,30.08,NE,45,0.0,0.0,84,0.03,-RA,,0.06,WeatherDisplay:10.37,2013-02-07 21:12:00,
2013-02-07 16:17:00,42.1,37.6,30.08,NE,45,0.0,0.0,84,0.06,-RA,,0.09,WeatherDisplay:10.37,2013-02-07 21:17:00,
2013-02-07 16:22:00,42.1,37.6,30.08,NE,45,0.0,0.0,84,0.06,-RA,,0.09,WeatherDisplay:10.37,2013-02-07 21:22:00,
2013-02-07 16:27:00,42.1,37.6,30.08,NE,45,0.0,0.0,84,0.06,-RA,,0.09,WeatherDisplay:10.37,2013-02-07 21:27:00,
2013-02-07 16:32:00,42.1,37.6,30.08,NE,45,0.0,0.0,84,0.06,-RA,,0.09,WeatherDisplay:10.37,2013-02-07 21:32:00,
2013-02-07 16:37:00,42.1,37.6,30.07,NE,45,0.0,0.0,84,0.06,-RA,,0.09,WeatherDisplay:10.37,2013-02-07 21:37:00,
2013-02-07 16:42:00,42.1,37.9,30.07,NE,45,0.0,0.0,85,0.09,-RA,,0.12,WeatherDisplay:10.37,2013-02-07 21:42:00,
2013-02-07 16:47:00,42.1,37.9,30.07,NE,45,0.0,0.0,85,0.06,-RA,,0.12,WeatherDisplay:10.37,2013-02-07 21:47:00,
2013-02-07 16:52:00,42.1,37.9,30.07,NE,45,0.0,0.0,85,0.06,-RA,,0.12,WeatherDisplay:10.37,2013-02-07 21:52:00,
2013-02-07 16:57:00,42.1,37.9,30.06,NE,45,0.0,0.0,85,0.06,-RA,,0.12,WeatherDisplay:10.37,2013-02-07 21:57:00,
2013-02-07 17:02:00,42.1,37.9,30.06,NE,45,0.0,0.0,85,0.06,-RA,,0.12,WeatherDisplay:10.37,2013-02-07 22:02:00,
2013-02-07 17:07:00,42.1,37.9,30.06,NE,45,0.0,0.0,85,0.06,-RA,,0.12,WeatherDisplay:10.37,2013-02-07 22:07:00,
2013-02-07 17:13:00,42.1,37.9,30.06,NE,45,0.0,0.0,85,0.06,-RA,,0.12,WeatherDisplay:10.37,2013-02-07 22:13:00,
2013-02-07 17:18:00,42.1,37.9,30.06,North,0,0.0,0.0,85,0.06,-RA,,0.15,WeatherDisplay:10.37,2013-02-07 22:18:00,
2013-02-07 17:23:00,42.1,38.2,30.06,North,0,1.1,0.0,86,0.06,-RA,,0.15,WeatherDisplay:10.37,2013-02-07 22:23:00,
2013-02-07 17:28:00,42.3,38.4,30.05,NNE,22,3.5,3.5,86,0.06,-RA,,0.15,WeatherDisplay:10.37,2013-02-07 22:28:00,
2013-02-07 17:33:00,42.1,38.2,30.05,North,0,5.8,5.8,86,0.06,-RA,,0.15,WeatherDisplay:10.37,2013-02-07 22:33:00,
2013-02-07 17:38:00,42.1,38.2,30.05,North,0,2.5,2.5,86,0.06,-RA,,0.15,WeatherDisplay:10.37,2013-02-07 22:38:00,
2013-02-07 17:43:00,42.1,38.2,30.05,North,0,9.2,9.2,86,0.06,-RA,,0.18,WeatherDisplay:10.37,2013-02-07 22:43:00,
2013-02-07 17:48:00,42.1,38.2,30.05,NNE,22,6.9,6.9,86,0.06,-RA,,0.18,WeatherDisplay:10.37,2013-02-07 22:48:00,
2013-02-07 17:53:00,42.1,38.2,30.04,North,0,3.5,3.5,86,0.06,-RA,,0.18,WeatherDisplay:10.37,2013-02-07 22:53:00,
2013-02-07 17:58:00,42.1,38.2,30.04,NW,315,4.6,4.6,86,0.06,-RA,,0.18,WeatherDisplay:10.37,2013-02-07 22:58:00,
2013-02-07 18:03:00,42.1,38.2,30.04,North,0,4.6,4.6,86,0.06,-RA,,0.18,WeatherDisplay:10.37,2013-02-07 23:03:00,
2013-02-07 18:08:00,42.1,38.2,30.04,North,0,5.8,5.8,86,0.06,-RA,,0.18,WeatherDisplay:10.37,2013-02-07 23:08:00,
2013-02-07 18:13:00,42.1,38.2,30.04,North,0,1.1,1.1,86,0.06,-RA,,0.21,WeatherDisplay:10.37,2013-02-07 23:13:00,
2013-02-07 18:18:00,42.1,38.2,30.04,North,0,0.0,0.0,86,0.06,-RA,,0.21,WeatherDisplay:10.37,2013-02-07 23:18:00,
2013-02-07 18:23:00,42.1,38.5,30.04,North,0,0.0,0.0,87,0.06,-RA,,0.21,WeatherDisplay:10.37,2013-02-07 23:23:00,
2013-02-07 18:28:00,42.1,38.2,30.04,North,0,0.0,0.0,86,0.06,-RA,,0.21,WeatherDisplay:10.37,2013-02-07 23:28:00,
2013-02-07 18:33:00,42.1,38.5,30.04,North,0,0.0,0.0,87,0.06,-RA,,0.21,WeatherDisplay:10.37,2013-02-07 23:33:00,
2013-02-07 18:38:00,42.3,38.7,30.04,North,0,4.6,4.6,87,0.06,-RA,,0.21,WeatherDisplay:10.37,2013-02-07 23:38:00,
2013-02-07 18:43:00,42.1,38.5,30.04,North,0,1.1,0.0,87,0.03,-RA,,0.21,WeatherDisplay:10.37,2013-02-07 23:43:00,
2013-02-07 18:49:00,42.3,38.7,30.04,North,0,0.0,0.0,87,0.03,-RA,,0.21,WeatherDisplay:10.37,2013-02-07 23:49:00,
2013-02-07 18:54:00,42.4,38.8,30.04,North,0,2.3,2.3,87,0.03,-RA,,0.21,WeatherDisplay:10.37,2013-02-07 23:54:00,
2013-02-07 18:59:00,42.4,38.8,30.04,North,0,0.0,0.0,87,0.03,-RA,,0.21,WeatherDisplay:10.37,2013-02-07 23:59:00,
2013-02-07 19:04:00,42.4,38.8,30.04,North,0,0.0,0.0,87,0.03,-RA,,0.21,WeatherDisplay:10.37,2013-02-08 00:04:00,
2013-02-07 19:09:00,42.4,38.8,30.04,North,0,0.0,0.0,87,0.03,-RA,,0.21,WeatherDisplay:10.37,2013-02-08 00:09:00,
2013-02-07 19:14:00,42.4,38.8,30.04,North,0,0.0,0.0,87,0.00,-RA,,0.21,WeatherDisplay:10.37,2013-02-08 00:14:00,
2013-02-07 19:19:00,42.4,38.8,30.04,North,0,0.0,0.0,87,0.00,-RA,,0.21,WeatherDisplay:10.37,2013-02-08 00:19:00,
2013-02-07 19:24:00,42.4,38.8,30.04,North,0,0.0,0.0,87,0.00,-RA,,0.21,WeatherDisplay:10.37,2013-02-08 00:24:00,
2013-02-07 19:29:00,42.4,38.8,30.04,North,0,0.0,0.0,87,0.00,-RA,,0.21,WeatherDisplay:10.37,2013-02-08 00:29:00,
2013-02-07 19:34:00,42.6,39.0,30.04,North,0,0.0,0.0,87,0.00,-RA,,0.21,WeatherDisplay:10.37,2013-02-08 00:34:00,
2013-02-07 19:39:00,42.6,39.0,30.04,North,0,0.0,0.0,87,0.00,-RA,,0.21,WeatherDisplay:10.37,2013-02-08 00:39:00,
2013-02-07 19:44:00,42.6,39.0,30.04,North,0,0.0,0.0,87,0.00,-RA,,0.21,WeatherDisplay:10.37,2013-02-08 00:44:00,
2013-02-07 19:49:00,42.6,39.0,30.04,North,0,0.0,0.0,87,0.03,-RA,,0.24,WeatherDisplay:10.37,2013-02-08 00:49:00,
2013-02-07 19:54:00,42.6,39.0,30.04,North,0,0.0,0.0,87,0.03,-RA,,0.24,WeatherDisplay:10.37,2013-02-08 00:54:00,
2013-02-07 19:59:00,42.6,39.0,30.04,North,0,0.0,0.0,87,0.03,-RA,,0.24,WeatherDisplay:10.37,2013-02-08 00:59:00,
2013-02-07 20:04:00,42.6,39.0,30.03,North,0,0.0,0.0,87,0.03,-RA,,0.24,WeatherDisplay:10.37,2013-02-08 01:04:00,
2013-02-07 20:09:00,42.6,39.0,30.04,North,0,0.0,0.0,87,0.03,-RA,,0.24,WeatherDisplay:10.37,2013-02-08 01:09:00,
2013-02-07 20:15:00,42.6,39.0,30.03,North,0,0.0,0.0,87,0.03,-RA,,0.24,WeatherDisplay:10.37,2013-02-08 01:15:00,
2013-02-07 20:20:00,42.6,39.0,30.03,North,0,0.0,0.0,87,0.03,-RA,,0.24,WeatherDisplay:10.37,2013-02-08 01:20:00,
2013-02-07 20:25:00,42.6,39.0,30.03,North,0,0.0,0.0,87,0.03,-RA,,0.24,WeatherDisplay:10.37,2013-02-08 01:25:00,
2013-02-07 20:30:00,42.6,39.3,30.03,North,0,0.0,0.0,88,0.00,-RA,,0.24,WeatherDisplay:10.37,2013-02-08 01:30:00,
2013-02-07 20:35:00,42.6,39.3,30.03,North,0,0.0,0.0,88,0.03,-RA,,0.24,WeatherDisplay:10.37,2013-02-08 01:35:00,
2013-02-07 20:40:00,42.6,39.0,30.03,North,0,0.0,0.0,87,0.06,-RA,,0.27,WeatherDisplay:10.37,2013-02-08 01:40:00,
2013-02-07 20:45:00,42.6,39.3,30.03,North,0,0.0,0.0,88,0.06,-RA,,0.27,WeatherDisplay:10.37,2013-02-08 01:45:00,
2013-02-07 20:50:00,42.6,39.3,30.03,North,0,0.0,0.0,88,0.03,-RA,,0.27,WeatherDisplay:10.37,2013-02-08 01:50:00,
2013-02-07 20:55:00,42.6,39.3,30.02,North,0,0.0,0.0,88,0.03,-RA,,0.27,WeatherDisplay:10.37,2013-02-08 01:55:00,
2013-02-07 21:00:00,42.6,39.3,30.02,North,0,0.0,0.0,88,0.03,-RA,,0.27,WeatherDisplay:10.37,2013-02-08 02:00:00,
2013-02-07 21:05:00,42.6,39.3,30.02,North,0,0.0,0.0,88,0.03,-RA,,0.27,WeatherDisplay:10.37,2013-02-08 02:05:00,
2013-02-07 21:10:00,42.6,39.3,30.02,North,0,0.0,0.0,88,0.03,-RA,,0.27,WeatherDisplay:10.37,2013-02-08 02:10:00,
2013-02-07 21:15:00,42.6,39.3,30.02,North,0,0.0,0.0,88,0.03,-RA,,0.27,WeatherDisplay:10.37,2013-02-08 02:15:00,
2013-02-07 21:20:00,42.6,39.3,30.02,North,0,0.0,0.0,88,0.03,-RA,,0.27,WeatherDisplay:10.37,2013-02-08 02:20:00,
2013-02-07 21:25:00,42.6,39.3,30.02,North,0,0.0,0.0,88,0.03,-RA,,0.27,WeatherDisplay:10.37,2013-02-08 02:25:00,
2013-02-07 21:31:00,42.4,39.1,30.02,North,0,0.0,0.0,88,0.03,-RA,,0.27,WeatherDisplay:10.37,2013-02-08 02:31:00,
2013-02-07 21:36:00,42.6,39.3,30.02,North,0,0.0,0.0,88,0.03,-RA,,0.30,WeatherDisplay:10.37,2013-02-08 02:36:00,
2013-02-07 21:41:00,42.6,39.3,30.02,North,0,0.0,0.0,88,0.03,-RA,,0.30,WeatherDisplay:10.37,2013-02-08 02:41:00,
2013-02-07 21:46:00,42.4,39.1,30.02,North,0,0.0,0.0,88,0.03,-RA,,0.30,WeatherDisplay:10.37,2013-02-08 02:46:00,
2013-02-07 21:51:00,42.6,39.3,30.01,North,0,0.0,0.0,88,0.03,-RA,,0.30,WeatherDisplay:10.37,2013-02-08 02:51:00,
2013-02-07 21:56:00,42.4,39.1,30.01,North,0,0.0,0.0,88,0.03,-RA,,0.30,WeatherDisplay:10.37,2013-02-08 02:56:00,
2013-02-07 22:01:00,42.4,39.1,30.01,North,0,0.0,0.0,88,0.03,-RA,,0.30,WeatherDisplay:10.37,2013-02-08 03:01:00,
2013-02-07 22:06:00,42.4,39.1,30.01,North,0,0.0,0.0,88,0.03,-RA,,0.30,WeatherDisplay:10.37,2013-02-08 03:06:00,
2013-02-07 22:11:00,42.4,39.4,30.01,North,0,0.0,0.0,89,0.03,-RA,,0.30,WeatherDisplay:10.37,2013-02-08 03:11:00,
2013-02-07 22:16:00,42.4,39.4,30.01,North,0,0.0,0.0,89,0.03,-RA,,0.30,WeatherDisplay:10.37,2013-02-08 03:16:00,
2013-02-07 22:21:00,42.4,39.4,30.00,North,0,0.0,0.0,89,0.03,-RA,,0.30,WeatherDisplay:10.37,2013-02-08 03:21:00,
2013-02-07 22:26:00,42.4,39.4,30.01,North,0,0.0,0.0,89,0.03,-RA,,0.30,WeatherDisplay:10.37,2013-02-08 03:26:00,
2013-02-07 22:31:00,42.4,39.4,30.01,North,0,0.0,0.0,89,0.03,-RA,,0.30,WeatherDisplay:10.37,2013-02-08 03:31:00,
2013-02-07 22:36:00,42.6,39.6,30.01,North,0,0.0,0.0,89,0.00,-RA,,0.30,WeatherDisplay:10.37,2013-02-08 03:36:00,
2013-02-07 22:41:00,42.6,39.6,30.00,North,0,0.0,0.0,89,0.00,-RA,,0.30,WeatherDisplay:10.37,2013-02-08 03:41:00,
2013-02-07 22:47:00,42.6,39.6,30.00,North,0,0.0,0.0,89,0.00,-RA,,0.30,WeatherDisplay:10.37,2013-02-08 03:47:00,
2013-02-07 22:52:00,42.6,39.6,30.00,North,0,0.0,0.0,89,0.00,-RA,,0.30,WeatherDisplay:10.37,2013-02-08 03:52:00,
2013-02-07 22:57:00,42.6,39.6,29.99,North,0,0.0,0.0,89,0.00,-RA,,0.30,WeatherDisplay:10.37,2013-02-08 03:57:00,
2013-02-07 23:02:00,42.6,39.6,29.99,North,0,0.0,0.0,89,0.00,OVC,,0.30,WeatherDisplay:10.37,2013-02-08 04:02:00,
2013-02-07 23:07:00,42.6,39.6,29.99,North,0,0.0,0.0,89,0.00,OVC,,0.30,WeatherDisplay:10.37,2013-02-08 04:07:00,
2013-02-07 23:12:00,42.8,39.8,29.99,North,0,0.0,0.0,89,0.00,OVC,,0.30,WeatherDisplay:10.37,2013-02-08 04:12:00,
2013-02-07 23:17:00,42.8,39.8,29.99,NNW,338,0.0,0.0,89,0.00,OVC,,0.30,WeatherDisplay:10.37,2013-02-08 04:17:00,
2013-02-07 23:22:00,42.6,39.6,29.99,NNW,338,0.0,0.0,89,0.00,OVC,,0.30,WeatherDisplay:10.37,2013-02-08 04:22:00,
2013-02-07 23:27:00,43.0,40.0,29.99,NNW,338,0.0,0.0,89,0.00,OVC,,0.30,WeatherDisplay:10.37,2013-02-08 04:27:00,
2013-02-07 23:32:00,43.0,40.0,29.99,NNW,338,0.0,0.0,89,0.00,OVC,,0.30,WeatherDisplay:10.37,2013-02-08 04:32:00,
2013-02-07 23:37:00,43.0,40.0,29.99,NNW,338,0.0,0.0,89,0.00,OVC,,0.30,WeatherDisplay:10.37,2013-02-08 04:37:00,
2013-02-07 23:42:00,43.0,40.0,29.99,NNW,338,0.0,0.0,89,0.00,OVC,,0.30,WeatherDisplay:10.37,2013-02-08 04:42:00,
2013-02-07 23:47:00,43.0,40.0,29.98,NNW,338,0.0,0.0,89,0.00,OVC,,0.30,WeatherDisplay:10.37,2013-02-08 04:47:00,
2013-02-07 23:52:00,43.0,40.0,29.98,NNW,338,0.0,0.0,89,0.00,OVC,,0.30,WeatherDisplay:10.37,2013-02-08 04:52:00,
2013-02-07 23:57:00,43.0,40.0,29.98,NNW,338,0.0,0.0,89,0.00,OVC,,0.30,WeatherDisplay:10.37,2013-02-08 04:57:00,